createdAt,value
2017-10-30T00:01:46.435Z,67.13
2017-10-30T00:04:13.935Z,66.55
2017-10-30T00:06:41.432Z,66.27
2017-10-30T00:09:08.919Z,66.11
2017-10-30T00:11:36.494Z,65.51
2017-10-30T00:14:03.982Z,65.26
2017-10-30T00:16:33.548Z,64.96
2017-10-30T00:19:01.061Z,64.72
2017-10-30T00:21:28.540Z,64.19
2017-10-30T00:23:56.020Z,63.94
2017-10-30T00:26:23.501Z,63.72
2017-10-30T00:28:50.983Z,63.48
2017-10-30T00:31:18.445Z,63.00
2017-10-30T00:33:45.926Z,62.66
2017-10-30T00:36:13.447Z,62.08
2017-10-30T00:38:40.901Z,61.43
2017-10-30T00:41:08.365Z,61.06
2017-10-30T00:43:36.532Z,61.04
2017-10-30T00:46:03.994Z,60.92
2017-10-30T00:48:31.471Z,61.27
2017-10-30T00:50:58.963Z,60.84
2017-10-30T00:53:26.426Z,61.05
2017-10-30T00:55:54.323Z,61.13
2017-10-30T00:58:21.770Z,61.27
2017-10-30T01:00:49.274Z,60.71
2017-10-30T01:03:17.626Z,61.01
2017-10-30T01:05:45.968Z,60.91
2017-10-30T01:08:13.453Z,60.26
2017-10-30T01:10:40.943Z,60.50
2017-10-30T01:13:08.430Z,60.38
2017-10-30T01:15:35.889Z,60.58
2017-10-30T01:18:03.353Z,60.64
2017-10-30T01:20:30.829Z,60.51
2017-10-30T01:22:58.706Z,60.50
2017-10-30T01:25:26.162Z,60.25
2017-10-30T01:27:53.621Z,60.29
2017-10-30T01:30:21.094Z,60.29
2017-10-30T01:32:48.562Z,59.80
2017-10-30T01:35:16.025Z,59.77
2017-10-30T01:37:43.498Z,59.56
2017-10-30T01:40:11.658Z,59.30
2017-10-30T01:42:39.124Z,65.80
2017-10-30T01:45:06.574Z,71.46
2017-10-30T01:47:34.053Z,74.68
2017-10-30T01:50:01.520Z,75.32
2017-10-30T01:52:28.972Z,72.64
2017-10-30T01:54:56.441Z,70.30
2017-10-30T01:57:24.799Z,69.88
2017-10-30T01:59:52.283Z,69.23
2017-10-30T02:02:19.773Z,67.59
2017-10-30T02:04:47.237Z,67.26
2017-10-30T02:07:14.726Z,67.96
2017-10-30T02:09:42.226Z,67.36
2017-10-30T02:12:09.666Z,67.27
2017-10-30T02:14:37.124Z,66.45
2017-10-30T02:17:04.606Z,65.31
2017-10-30T02:19:32.075Z,65.01
2017-10-30T02:21:59.658Z,64.47
2017-10-30T02:24:27.160Z,64.21
2017-10-30T02:26:54.612Z,63.36
2017-10-30T02:29:22.083Z,63.46
2017-10-30T02:31:49.570Z,63.84
2017-10-30T02:34:17.055Z,63.70
2017-10-30T02:36:44.575Z,64.14
2017-10-30T02:39:12.057Z,63.71
2017-10-30T02:41:39.577Z,63.54
2017-10-30T02:44:07.140Z,63.90
2017-10-30T02:46:34.710Z,63.22
2017-10-30T02:49:02.191Z,63.12
2017-10-30T02:51:29.699Z,63.30
2017-10-30T02:53:57.242Z,63.40
2017-10-30T02:56:24.732Z,62.88
2017-10-30T02:58:52.239Z,62.89
2017-10-30T03:01:19.723Z,63.18
2017-10-30T03:03:47.213Z,62.91
2017-10-30T03:06:14.749Z,62.48
2017-10-30T03:08:42.238Z,62.23
2017-10-30T03:11:09.836Z,62.21
2017-10-30T03:13:37.354Z,62.10
2017-10-30T03:16:04.834Z,61.52
2017-10-30T03:18:32.331Z,61.88
2017-10-30T03:20:59.856Z,62.00
2017-10-30T03:23:27.391Z,62.33
2017-10-30T03:25:54.905Z,62.04
2017-10-30T03:28:22.421Z,61.98
2017-10-30T03:30:49.930Z,62.25
2017-10-30T03:33:17.441Z,61.39
2017-10-30T03:35:44.979Z,61.42
2017-10-30T03:38:12.474Z,61.47
2017-10-30T03:40:39.956Z,61.78
2017-10-30T03:43:07.484Z,62.19
2017-10-30T03:45:35.000Z,62.22
2017-10-30T03:48:02.486Z,62.56
2017-10-30T03:50:30.020Z,62.50
2017-10-30T03:52:57.534Z,62.61
2017-10-30T03:55:25.015Z,62.64
2017-10-30T03:57:52.502Z,62.66
2017-10-30T04:00:19.966Z,62.83
2017-10-30T04:02:47.430Z,63.16
2017-10-30T04:05:14.915Z,63.00
2017-10-30T04:07:42.392Z,63.22
2017-10-30T04:10:09.853Z,63.52
2017-10-30T04:12:37.332Z,63.53
2017-10-30T04:15:05.561Z,63.38
2017-10-30T04:17:33.042Z,63.66
2017-10-30T04:20:00.514Z,64.20
2017-10-30T04:22:27.975Z,64.27
2017-10-30T04:24:55.461Z,64.85
2017-10-30T04:27:22.987Z,64.94
2017-10-30T04:29:50.476Z,65.06
2017-10-30T04:32:17.953Z,65.20
2017-10-30T04:34:45.483Z,65.78
2017-10-30T04:37:12.984Z,65.41
2017-10-30T04:39:40.451Z,65.88
2017-10-30T04:42:07.995Z,65.45
2017-10-30T04:44:35.456Z,65.83
2017-10-30T04:47:02.920Z,65.20
2017-10-30T04:49:30.424Z,64.72
2017-10-30T04:51:57.898Z,64.56
2017-10-30T04:54:25.342Z,64.74
2017-10-30T04:56:52.836Z,64.35
2017-10-30T04:59:21.095Z,63.96
2017-10-30T05:01:48.554Z,63.69
2017-10-30T05:04:16.052Z,63.61
2017-10-30T05:06:43.522Z,62.97
2017-10-30T05:09:11.013Z,63.39
2017-10-30T05:11:38.495Z,63.28
2017-10-30T05:14:05.952Z,62.83
2017-10-30T05:16:33.896Z,62.88
2017-10-30T05:19:01.445Z,62.69
2017-10-30T05:21:28.925Z,62.59
2017-10-30T05:23:56.429Z,62.79
2017-10-30T05:26:24.773Z,63.37
2017-10-30T05:28:52.244Z,63.17
2017-10-30T05:31:19.729Z,63.56
2017-10-30T05:33:47.221Z,64.15
2017-10-30T05:36:14.669Z,64.03
2017-10-30T05:38:42.121Z,63.83
2017-10-30T05:41:09.588Z,63.92
2017-10-30T05:43:37.116Z,63.93
2017-10-30T05:46:04.575Z,63.95
2017-10-30T05:48:32.104Z,64.15
2017-10-30T05:50:59.593Z,64.96
2017-10-30T05:53:27.131Z,65.37
2017-10-30T05:55:54.608Z,64.97
2017-10-30T05:58:22.093Z,65.12
2017-10-30T06:00:49.552Z,65.30
2017-10-30T06:03:17.013Z,65.12
2017-10-30T06:05:44.486Z,64.34
2017-10-30T06:08:12.557Z,64.08
2017-10-30T06:10:40.070Z,63.40
2017-10-30T06:13:07.519Z,63.18
2017-10-30T06:15:35.039Z,63.19
2017-10-30T06:18:02.518Z,63.68
2017-10-30T06:20:30.977Z,64.16
2017-10-30T06:22:58.430Z,64.55
2017-10-30T06:25:25.941Z,65.04
2017-10-30T06:27:54.048Z,65.57
2017-10-30T06:30:21.536Z,65.12
2017-10-30T06:32:49.022Z,65.70
2017-10-30T06:35:16.491Z,65.42
2017-10-30T06:37:43.994Z,64.72
2017-10-30T06:40:11.496Z,64.90
2017-10-30T06:42:38.960Z,64.98
2017-10-30T06:45:06.411Z,65.33
2017-10-30T06:47:33.934Z,64.99
2017-10-30T06:50:01.464Z,65.26
2017-10-30T06:52:29.509Z,64.37
2017-10-30T06:54:57.066Z,64.81
2017-10-30T06:57:24.574Z,65.24
2017-10-30T06:59:52.076Z,65.47
2017-10-30T07:02:31.193Z,65.94
2017-10-30T07:04:58.729Z,65.86
2017-10-30T07:07:26.228Z,65.87
2017-10-30T07:09:53.801Z,65.76
2017-10-30T07:12:21.297Z,65.65
2017-10-30T07:14:48.804Z,65.69
2017-10-30T07:17:16.293Z,66.51
2017-10-30T07:19:43.877Z,67.28
2017-10-30T07:22:11.377Z,67.51
2017-10-30T07:24:38.925Z,67.84
2017-10-30T07:27:06.442Z,68.34
2017-10-30T07:29:34.002Z,69.04
2017-10-30T07:32:02.845Z,68.93
2017-10-30T07:34:30.347Z,70.02
2017-10-30T07:36:57.859Z,71.22
2017-10-30T07:39:25.365Z,71.46
2017-10-30T07:41:55.701Z,72.10
2017-10-30T07:44:23.178Z,71.86
2017-10-30T07:46:50.670Z,71.74
2017-10-30T07:49:18.203Z,71.24
2017-10-30T07:51:47.242Z,71.62
2017-10-30T07:54:14.821Z,70.95
2017-10-30T07:56:42.302Z,70.57
2017-10-30T07:59:10.337Z,70.45
2017-10-30T08:01:37.799Z,70.61
2017-10-30T08:04:05.287Z,70.32
2017-10-30T08:06:32.807Z,68.88
2017-10-30T08:09:00.265Z,68.80
2017-10-30T08:11:27.741Z,68.05
2017-10-30T08:13:55.250Z,67.85
2017-10-30T08:16:22.839Z,68.01
2017-10-30T08:18:50.320Z,67.81
2017-10-30T08:21:17.816Z,66.49
2017-10-30T08:23:45.287Z,66.37
2017-10-30T08:26:12.784Z,66.24
2017-10-30T08:28:40.948Z,66.91
2017-10-30T08:31:08.400Z,68.56
2017-10-30T08:33:35.887Z,67.85
2017-10-30T08:36:03.374Z,67.56
2017-10-30T08:38:30.845Z,68.16
2017-10-30T08:40:58.312Z,67.88
2017-10-30T08:43:25.892Z,68.23
2017-10-30T08:45:53.356Z,68.19
2017-10-30T08:48:21.418Z,67.69
2017-10-30T08:50:48.935Z,68.91
2017-10-30T08:53:16.466Z,68.93
2017-10-30T08:55:43.954Z,68.89
2017-10-30T08:58:11.479Z,70.09
2017-10-30T09:00:38.998Z,70.33
2017-10-30T09:03:06.485Z,71.12
2017-10-30T09:05:34.026Z,70.47
2017-10-30T09:08:01.990Z,69.78
2017-10-30T09:10:29.481Z,66.53
2017-10-30T09:12:57.017Z,66.32
2017-10-30T09:15:24.558Z,65.33
2017-10-30T09:17:52.035Z,64.79
2017-10-30T09:20:19.566Z,64.94
2017-10-30T09:22:47.070Z,64.14
2017-10-30T09:25:14.584Z,63.18
2017-10-30T09:27:42.110Z,63.50
2017-10-30T09:30:10.024Z,63.19
2017-10-30T09:32:37.492Z,63.10
2017-10-30T09:35:04.978Z,62.19
2017-10-30T09:37:32.454Z,62.89
2017-10-30T09:39:59.942Z,60.91
2017-10-30T09:42:28.216Z,60.85
2017-10-30T09:44:56.482Z,59.82
2017-10-30T09:47:23.958Z,58.30
2017-10-30T09:49:52.302Z,56.99
2017-10-30T09:52:19.810Z,57.44
2017-10-30T09:54:47.786Z,59.04
2017-10-30T09:57:16.377Z,58.69
2017-10-30T09:59:43.882Z,59.25
2017-10-30T10:02:11.381Z,58.87
2017-10-30T10:04:38.965Z,58.95
2017-10-30T10:07:06.522Z,58.30
2017-10-30T10:09:34.043Z,57.16
2017-10-30T10:12:01.548Z,56.90
2017-10-30T10:14:29.065Z,56.42
2017-10-30T10:16:56.550Z,55.45
2017-10-30T10:19:24.042Z,54.96
2017-10-30T10:21:51.566Z,53.87
2017-10-30T10:24:19.093Z,53.71
2017-10-30T10:26:46.601Z,53.79
2017-10-30T10:29:14.109Z,52.38
2017-10-30T10:31:41.593Z,54.30
2017-10-30T10:34:09.047Z,53.74
2017-10-30T10:36:37.464Z,53.65
2017-10-30T10:39:04.986Z,54.05
2017-10-30T10:41:32.442Z,55.06
2017-10-30T10:44:00.018Z,56.97
2017-10-30T10:46:27.493Z,63.19
2017-10-30T10:48:54.962Z,63.76
2017-10-30T10:51:22.462Z,65.75
2017-10-30T10:53:49.956Z,73.11
2017-10-30T10:56:17.414Z,75.45
2017-10-30T10:58:44.940Z,75.79
2017-10-30T11:01:12.393Z,75.03
2017-10-30T11:03:40.383Z,71.81
2017-10-30T11:06:09.223Z,72.14
2017-10-30T11:08:38.203Z,70.82
2017-10-30T11:11:05.717Z,71.22
2017-10-30T11:13:33.193Z,68.24
2017-10-30T11:16:00.661Z,67.68
2017-10-30T11:18:28.199Z,66.42
2017-10-30T11:20:55.675Z,65.14
2017-10-30T11:23:23.121Z,62.75
2017-10-30T11:25:50.592Z,63.28
2017-10-30T11:28:18.062Z,62.11
2017-10-30T11:30:45.550Z,61.98
2017-10-30T11:33:12.994Z,60.75
2017-10-30T11:35:40.500Z,59.51
2017-10-30T11:38:07.977Z,57.37
2017-10-30T11:40:35.469Z,55.99
2017-10-30T11:43:02.927Z,55.12
2017-10-30T11:45:30.662Z,56.21
2017-10-30T11:47:58.142Z,55.45
2017-10-30T11:50:25.600Z,55.55
2017-10-30T11:52:53.059Z,55.31
2017-10-30T11:55:21.442Z,53.58
2017-10-30T11:57:51.397Z,53.06
2017-10-30T12:00:18.877Z,53.41
2017-10-30T12:02:46.409Z,53.71
2017-10-30T12:05:13.890Z,53.07
2017-10-30T12:07:41.376Z,53.25
2017-10-30T12:10:10.142Z,53.19
2017-10-30T12:12:37.702Z,54.15
2017-10-30T12:15:05.184Z,52.89
2017-10-30T12:17:32.642Z,51.08
2017-10-30T12:20:00.103Z,49.55
2017-10-30T12:22:27.605Z,47.37
2017-10-30T12:24:55.080Z,46.60
2017-10-30T12:27:22.538Z,46.30
2017-10-30T12:29:50.041Z,46.60
2017-10-30T12:32:17.485Z,47.10
2017-10-30T12:34:44.979Z,47.74
2017-10-30T12:37:12.442Z,48.02
2017-10-30T12:39:39.913Z,48.59
2017-10-30T12:42:07.390Z,48.37
2017-10-30T12:44:34.868Z,49.03
2017-10-30T12:47:02.330Z,49.04
2017-10-30T12:49:29.801Z,48.67
2017-10-30T12:51:57.317Z,48.43
2017-10-30T12:54:24.810Z,48.56
2017-10-30T12:56:52.301Z,47.93
2017-10-30T12:59:19.849Z,48.31
2017-10-30T13:01:47.324Z,48.84
2017-10-30T13:04:14.805Z,48.41
2017-10-30T13:06:42.298Z,48.18
2017-10-30T13:09:09.838Z,47.94
2017-10-30T13:11:37.320Z,48.16
2017-10-30T13:14:05.604Z,48.23
2017-10-30T13:19:05.883Z,48.59
2017-10-30T13:21:33.358Z,49.39
2017-10-30T13:24:00.852Z,49.42
2017-10-30T13:26:29.318Z,49.35
2017-10-30T13:28:56.789Z,49.85
2017-10-30T13:31:24.255Z,50.90
2017-10-30T13:33:51.737Z,51.29
2017-10-30T13:36:19.221Z,51.94
2017-10-30T13:38:46.690Z,52.54
2017-10-30T13:41:14.195Z,52.62
2017-10-30T13:43:41.725Z,53.91
2017-10-30T13:46:09.185Z,54.74
2017-10-30T13:48:36.666Z,54.31
2017-10-30T13:51:04.148Z,52.80
2017-10-30T13:53:31.636Z,51.23
2017-10-30T13:55:59.157Z,50.42
2017-10-30T13:58:26.641Z,48.22
2017-10-30T14:00:54.130Z,47.64
2017-10-30T14:03:21.604Z,47.61
2017-10-30T14:05:49.064Z,50.21
2017-10-30T14:08:16.590Z,54.36
2017-10-30T14:10:44.085Z,52.30
2017-10-30T14:13:11.571Z,53.47
2017-10-30T14:15:39.138Z,55.07
2017-10-30T14:18:06.836Z,53.85
2017-10-30T14:20:34.299Z,51.16
2017-10-30T14:23:01.763Z,50.75
2017-10-30T14:25:29.249Z,51.19
2017-10-30T14:27:56.718Z,50.89
2017-10-30T14:30:24.287Z,50.97
2017-10-30T14:32:51.785Z,49.19
2017-10-30T14:35:19.289Z,47.98
2017-10-30T14:37:46.777Z,48.47
2017-10-30T14:40:14.320Z,49.19
2017-10-30T14:42:41.827Z,49.27
2017-10-30T14:45:09.309Z,48.21
2017-10-30T14:47:36.794Z,47.86
2017-10-30T14:50:04.259Z,47.64
2017-10-30T14:52:31.741Z,49.15
2017-10-30T14:54:59.266Z,49.60
2017-10-30T14:57:26.781Z,52.52
2017-10-30T14:59:54.356Z,54.48
2017-10-30T15:02:21.881Z,56.65
2017-10-30T15:04:49.369Z,59.08
2017-10-30T15:07:16.845Z,61.18
2017-10-30T15:09:44.311Z,63.83
2017-10-30T15:12:11.969Z,68.40
2017-10-30T15:14:39.451Z,69.84
2017-10-30T15:17:06.972Z,71.90
2017-10-30T15:19:34.471Z,72.37
2017-10-30T15:22:02.052Z,73.35
2017-10-30T15:24:29.578Z,71.14
2017-10-30T15:26:57.072Z,71.08
2017-10-30T15:29:24.689Z,70.17
2017-10-30T15:31:52.179Z,69.02
2017-10-30T15:34:19.660Z,66.76
2017-10-30T15:36:47.117Z,66.39
2017-10-30T15:39:14.718Z,66.48
2017-10-30T15:41:42.283Z,66.32
2017-10-30T15:44:09.779Z,65.52
2017-10-30T15:46:37.311Z,66.23
2017-10-30T15:49:04.783Z,63.69
2017-10-30T15:51:32.257Z,63.73
2017-10-30T15:53:59.818Z,61.88
2017-10-30T15:56:27.393Z,63.14
2017-10-30T15:58:54.927Z,63.21
2017-10-30T16:01:22.471Z,62.69
2017-10-30T16:03:50.019Z,61.87
2017-10-30T16:06:17.488Z,61.69
2017-10-30T16:08:44.970Z,60.12
2017-10-30T16:11:12.433Z,59.05
2017-10-30T16:13:39.918Z,59.43
2017-10-30T16:16:07.394Z,58.88
2017-10-30T16:18:34.862Z,59.01
2017-10-30T16:21:02.379Z,58.99
2017-10-30T16:23:29.861Z,59.33
2017-10-30T16:25:57.347Z,59.59
2017-10-30T16:28:24.805Z,59.03
2017-10-30T16:30:52.298Z,58.91
2017-10-30T16:33:19.847Z,57.72
2017-10-30T16:35:47.337Z,56.80
2017-10-30T16:38:14.853Z,57.74
2017-10-30T16:40:42.318Z,57.09
2017-10-30T16:43:09.797Z,56.95
2017-10-30T16:45:37.273Z,57.27
2017-10-30T16:48:04.742Z,57.55
2017-10-30T16:50:32.245Z,57.75
2017-10-30T16:52:59.726Z,57.91
2017-10-30T16:55:27.223Z,57.81
2017-10-30T16:57:54.687Z,58.64
2017-10-30T17:00:22.185Z,58.70
2017-10-30T17:02:49.638Z,59.33
2017-10-30T17:05:17.086Z,59.68
2017-10-30T17:07:44.561Z,59.86
2017-10-30T17:10:12.089Z,59.50
2017-10-30T17:12:39.567Z,59.45
2017-10-30T17:15:07.057Z,59.50
2017-10-30T17:17:34.524Z,59.18
2017-10-30T17:20:01.979Z,59.02
2017-10-30T17:22:29.460Z,59.27
2017-10-30T17:24:56.917Z,59.25
2017-10-30T17:27:24.396Z,60.16
2017-10-30T17:29:51.871Z,60.24
2017-10-30T17:32:19.350Z,60.60
2017-10-30T17:34:46.851Z,60.83
2017-10-30T17:37:14.314Z,61.26
2017-10-30T17:39:41.831Z,61.88
2017-10-30T17:42:09.296Z,62.44
2017-10-30T17:44:36.778Z,62.96
2017-10-30T17:47:04.270Z,63.28
2017-10-30T17:49:31.784Z,63.33
2017-10-30T17:51:59.297Z,63.41
2017-10-30T17:54:26.755Z,63.98
2017-10-30T17:56:54.219Z,63.40
2017-10-30T17:59:21.736Z,62.75
2017-10-30T18:01:49.200Z,63.36
2017-10-30T18:04:16.663Z,63.64
2017-10-30T18:06:44.154Z,64.25
2017-10-30T18:09:11.642Z,64.14
2017-10-30T18:11:39.126Z,63.87
2017-10-30T18:14:07.706Z,63.97
2017-10-30T18:16:35.178Z,63.93
2017-10-30T18:19:02.658Z,63.07
2017-10-30T18:21:30.158Z,61.91
2017-10-30T18:23:57.618Z,60.57
2017-10-30T18:26:25.119Z,60.29
2017-10-30T18:31:20.127Z,59.75
2017-10-30T18:33:47.880Z,59.64
2017-10-30T18:36:15.401Z,59.03
2017-10-30T18:38:42.865Z,58.54
2017-10-30T18:41:10.419Z,57.88
2017-10-30T18:43:37.947Z,57.63
2017-10-30T18:46:05.520Z,58.12
2017-10-30T18:48:32.980Z,56.87
2017-10-30T18:51:00.547Z,56.96
2017-10-30T18:53:28.073Z,57.13
2017-10-30T18:55:55.536Z,57.24
2017-10-30T18:58:23.025Z,56.87
2017-10-30T19:00:50.595Z,56.35
2017-10-30T19:03:18.102Z,56.39
2017-10-30T19:05:45.586Z,56.53
2017-10-30T19:08:13.056Z,55.85
2017-10-30T19:10:40.553Z,56.08
2017-10-30T19:13:08.095Z,55.92
2017-10-30T19:15:35.745Z,56.11
2017-10-30T19:18:03.231Z,56.57
2017-10-30T19:20:30.740Z,56.53
2017-10-30T19:22:58.222Z,57.03
2017-10-30T19:25:25.698Z,56.77
2017-10-30T19:27:53.209Z,57.27
2017-10-30T19:30:20.678Z,57.33
2017-10-30T19:32:48.158Z,57.59
2017-10-30T19:35:15.673Z,57.20
2017-10-30T19:37:43.151Z,56.50
2017-10-30T19:40:10.629Z,57.46
2017-10-30T19:42:38.106Z,57.67
2017-10-30T19:45:05.644Z,57.78
2017-10-30T19:47:33.172Z,56.68
2017-10-30T19:50:00.709Z,57.07
2017-10-30T19:52:28.245Z,57.27
2017-10-30T19:54:55.786Z,57.27
2017-10-30T19:57:23.290Z,56.71
2017-10-30T19:59:50.808Z,57.25
2017-10-30T20:02:18.355Z,57.20
2017-10-30T20:04:46.110Z,56.77
2017-10-30T20:07:19.369Z,56.60
2017-10-30T20:09:52.484Z,56.61
2017-10-30T20:12:25.466Z,56.84
2017-10-30T20:14:53.052Z,56.70
2017-10-30T20:17:20.531Z,56.73
2017-10-30T20:19:48.002Z,56.23
2017-10-30T20:22:15.508Z,56.51
2017-10-30T20:24:42.996Z,56.58
2017-10-30T20:27:10.478Z,56.97
2017-10-30T20:29:37.982Z,56.76
2017-10-30T20:32:05.465Z,56.88
2017-10-30T20:34:32.937Z,57.08
2017-10-30T20:37:00.412Z,57.08
2017-10-30T20:39:27.940Z,57.18
2017-10-30T20:41:55.392Z,56.92
2017-10-30T20:44:22.879Z,57.43
2017-10-30T20:46:50.357Z,56.72
2017-10-30T20:49:17.815Z,57.29
2017-10-30T20:51:45.296Z,57.93
2017-10-30T20:54:12.774Z,57.51
2017-10-30T20:56:40.255Z,57.74
2017-10-30T20:59:07.728Z,57.47
2017-10-30T21:01:35.207Z,57.75
2017-10-30T21:04:02.710Z,58.05
2017-10-30T21:06:30.233Z,58.40
2017-10-30T21:08:57.708Z,58.36
2017-10-30T21:11:25.177Z,58.54
2017-10-30T21:13:52.718Z,58.82
2017-10-30T21:16:20.189Z,58.96
2017-10-30T21:18:47.916Z,59.08
2017-10-30T21:21:15.415Z,59.43
2017-10-30T21:23:42.921Z,59.46
2017-10-30T21:26:10.435Z,59.54
2017-10-30T21:28:37.978Z,59.43
2017-10-30T21:31:05.450Z,59.15
2017-10-30T21:33:32.931Z,59.53
2017-10-30T21:36:00.441Z,60.03
2017-10-30T21:38:27.896Z,60.36
2017-10-30T21:40:55.369Z,59.77
2017-10-30T21:43:22.839Z,59.82
2017-10-30T21:45:50.296Z,59.49
2017-10-30T21:48:17.766Z,59.86
2017-10-30T21:50:45.277Z,59.85
2017-10-30T21:53:12.806Z,59.58
2017-10-30T21:55:40.297Z,59.72
2017-10-30T21:58:07.816Z,59.92
2017-10-30T22:00:35.297Z,59.99
2017-10-30T22:03:02.766Z,60.26
2017-10-30T22:05:30.283Z,59.76
2017-10-30T22:07:57.786Z,60.00
2017-10-30T22:10:25.244Z,59.98
2017-10-30T22:12:52.755Z,59.92
2017-10-30T22:15:20.217Z,60.67
2017-10-30T22:17:49.510Z,60.52
2017-10-30T22:20:17.008Z,60.63
2017-10-30T22:22:44.480Z,60.62
2017-10-30T22:25:11.935Z,60.60
2017-10-30T22:27:39.408Z,60.64
2017-10-30T22:30:06.917Z,61.60
2017-10-30T22:32:34.384Z,62.02
2017-10-30T22:35:01.884Z,62.10
2017-10-30T22:37:29.374Z,62.48
2017-10-30T22:39:56.834Z,62.59
2017-10-30T22:42:24.356Z,63.06
2017-10-30T22:44:51.858Z,63.24
2017-10-30T22:47:19.321Z,63.42
2017-10-30T22:49:46.866Z,64.00
2017-10-30T22:52:14.334Z,63.20
2017-10-30T22:54:41.853Z,63.19
2017-10-30T22:57:09.312Z,63.26
2017-10-30T22:59:36.792Z,62.86
2017-10-30T23:02:04.281Z,62.85
2017-10-30T23:04:31.790Z,62.47
2017-10-30T23:06:59.241Z,62.57
2017-10-30T23:09:26.733Z,62.68
2017-10-30T23:11:54.245Z,62.65
2017-10-30T23:14:21.710Z,62.80
2017-10-30T23:16:49.165Z,63.49
2017-10-30T23:19:16.655Z,63.54
2017-10-30T23:21:44.134Z,63.58
2017-10-30T23:24:11.602Z,63.92
2017-10-30T23:26:39.100Z,64.32
2017-10-30T23:29:06.562Z,63.94
2017-10-30T23:31:34.029Z,64.13
2017-10-30T23:34:01.525Z,64.50
2017-10-30T23:36:29.009Z,64.83
2017-10-30T23:38:56.489Z,65.17
2017-10-30T23:41:23.973Z,65.05
2017-10-30T23:43:51.445Z,65.14
2017-10-30T23:46:18.902Z,66.17
2017-10-30T23:48:46.370Z,65.43
2017-10-30T23:51:13.878Z,65.35
2017-10-30T23:53:41.339Z,65.57
2017-10-30T23:56:08.827Z,65.53
2017-10-30T23:58:36.282Z,65.56
